sensor_id;sensor_type;location;lat;lon;timestamp;P1;durP1;ratioP1;P2;durP2;ratioP2
20069;SDS011;10195;50.868;4.382;2023-02-23T00:01:43;69.47;;;37.30;;
20069;SDS011;10195;50.868;4.382;2023-02-23T00:04:09;69.07;;;37.23;;
20069;SDS011;10195;50.868;4.382;2023-02-23T00:06:35;73.73;;;41.07;;
20069;SDS011;10195;50.868;4.382;2023-02-23T00:09:02;74.60;;;40.60;;
20069;SDS011;10195;50.868;4.382;2023-02-23T00:11:58;72.50;;;38.77;;
20069;SDS011;10195;50.868;4.382;2023-02-23T00:14:27;68.80;;;39.67;;
20069;SDS011;10195;50.868;4.382;2023-02-23T00:16:55;67.50;;;38.63;;
20069;SDS011;10195;50.868;4.382;2023-02-23T00:19:21;70.73;;;37.33;;
20069;SDS011;10195;50.868;4.382;2023-02-23T00:21:48;65.00;;;38.27;;
20069;SDS011;10195;50.868;4.382;2023-02-23T00:24:15;63.77;;;37.30;;
20069;SDS011;10195;50.868;4.382;2023-02-23T00:26:44;62.93;;;35.70;;
20069;SDS011;10195;50.868;4.382;2023-02-23T00:29:13;61.20;;;35.47;;
20069;SDS011;10195;50.868;4.382;2023-02-23T00:31:43;58.23;;;33.40;;
20069;SDS011;10195;50.868;4.382;2023-02-23T00:34:10;55.43;;;33.47;;
20069;SDS011;10195;50.868;4.382;2023-02-23T00:36:37;55.30;;;33.83;;
20069;SDS011;10195;50.868;4.382;2023-02-23T00:39:04;56.10;;;32.83;;
20069;SDS011;10195;50.868;4.382;2023-02-23T00:41:43;53.47;;;31.37;;
20069;SDS011;10195;50.868;4.382;2023-02-23T00:44:09;53.27;;;32.77;;
20069;SDS011;10195;50.868;4.382;2023-02-23T00:46:34;56.63;;;34.57;;
20069;SDS011;10195;50.868;4.382;2023-02-23T00:49:00;53.77;;;32.67;;
20069;SDS011;10195;50.868;4.382;2023-02-23T00:51:26;51.97;;;32.17;;
20069;SDS011;10195;50.868;4.382;2023-02-23T00:53:56;52.50;;;29.13;;
20069;SDS011;10195;50.868;4.382;2023-02-23T00:56:23;45.87;;;30.30;;
20069;SDS011;10195;50.868;4.382;2023-02-23T00:58:50;49.40;;;31.17;;
20069;SDS011;10195;50.868;4.382;2023-02-23T01:01:16;47.43;;;28.67;;
20069;SDS011;10195;50.868;4.382;2023-02-23T01:03:43;42.63;;;28.37;;
20069;SDS011;10195;50.868;4.382;2023-02-23T01:06:10;47.07;;;29.50;;
20069;SDS011;10195;50.868;4.382;2023-02-23T01:08:42;48.07;;;28.90;;
20069;SDS011;10195;50.868;4.382;2023-02-23T01:11:10;42.33;;;27.93;;
20069;SDS011;10195;50.868;4.382;2023-02-23T01:13:39;44.03;;;28.73;;
20069;SDS011;10195;50.868;4.382;2023-02-23T01:16:06;46.67;;;29.37;;
20069;SDS011;10195;50.868;4.382;2023-02-23T01:18:34;45.07;;;28.90;;
20069;SDS011;10195;50.868;4.382;2023-02-23T01:21:00;44.50;;;28.33;;
20069;SDS011;10195;50.868;4.382;2023-02-23T01:23:29;49.10;;;29.83;;
20069;SDS011;10195;50.868;4.382;2023-02-23T01:25:55;45.97;;;28.90;;
20069;SDS011;10195;50.868;4.382;2023-02-23T01:28:21;44.40;;;29.03;;
20069;SDS011;10195;50.868;4.382;2023-02-23T01:30:47;44.00;;;29.13;;
20069;SDS011;10195;50.868;4.382;2023-02-23T01:33:13;47.17;;;30.43;;
20069;SDS011;10195;50.868;4.382;2023-02-23T01:35:39;46.40;;;29.50;;
20069;SDS011;10195;50.868;4.382;2023-02-23T01:38:04;48.63;;;30.23;;
20069;SDS011;10195;50.868;4.382;2023-02-23T01:40:30;48.30;;;30.60;;
20069;SDS011;10195;50.868;4.382;2023-02-23T01:43:14;49.23;;;29.83;;
20069;SDS011;10195;50.868;4.382;2023-02-23T01:45:42;50.60;;;29.97;;
20069;SDS011;10195;50.868;4.382;2023-02-23T01:48:11;53.47;;;31.43;;
20069;SDS011;10195;50.868;4.382;2023-02-23T01:50:42;54.03;;;31.33;;
20069;SDS011;10195;50.868;4.382;2023-02-23T01:53:13;51.70;;;31.63;;
20069;SDS011;10195;50.868;4.382;2023-02-23T01:55:41;57.70;;;32.37;;
20069;SDS011;10195;50.868;4.382;2023-02-23T01:58:09;55.30;;;32.03;;
20069;SDS011;10195;50.868;4.382;2023-02-23T02:00:45;59.43;;;32.17;;
20069;SDS011;10195;50.868;4.382;2023-02-23T02:03:33;62.27;;;33.77;;
20069;SDS011;10195;50.868;4.382;2023-02-23T02:06:04;61.20;;;33.47;;
20069;SDS011;10195;50.868;4.382;2023-02-23T02:08:35;61.07;;;33.33;;
20069;SDS011;10195;50.868;4.382;2023-02-23T02:11:13;66.33;;;35.00;;
20069;SDS011;10195;50.868;4.382;2023-02-23T02:14:16;67.60;;;35.57;;
20069;SDS011;10195;50.868;4.382;2023-02-23T02:25:35;81.70;;;38.83;;
20069;SDS011;10195;50.868;4.382;2023-02-23T02:39:08;88.80;;;43.33;;
20069;SDS011;10195;50.868;4.382;2023-02-23T02:45:02;86.63;;;41.17;;
20069;SDS011;10195;50.868;4.382;2023-02-23T02:50:36;91.30;;;42.63;;
20069;SDS011;10195;50.868;4.382;2023-02-23T02:53:07;93.03;;;44.03;;
20069;SDS011;10195;50.868;4.382;2023-02-23T02:55:39;92.73;;;44.77;;
20069;SDS011;10195;50.868;4.382;2023-02-23T02:58:08;98.30;;;43.20;;
20069;SDS011;10195;50.868;4.382;2023-02-23T03:03:31;98.60;;;42.13;;
20069;SDS011;10195;50.868;4.382;2023-02-23T03:06:20;90.93;;;41.07;;
20069;SDS011;10195;50.868;4.382;2023-02-23T03:09:19;97.40;;;43.07;;
20069;SDS011;10195;50.868;4.382;2023-02-23T03:12:12;95.13;;;41.57;;
20069;SDS011;10195;50.868;4.382;2023-02-23T03:15:28;94.67;;;41.13;;
20069;SDS011;10195;50.868;4.382;2023-02-23T03:21:26;105.27;;;49.67;;
20069;SDS011;10195;50.868;4.382;2023-02-23T03:30:34;96.47;;;39.70;;
20069;SDS011;10195;50.868;4.382;2023-02-23T03:33:43;102.73;;;38.57;;
20069;SDS011;10195;50.868;4.382;2023-02-23T03:36:35;101.60;;;39.97;;
20069;SDS011;10195;50.868;4.382;2023-02-23T03:39:37;98.77;;;36.87;;
20069;SDS011;10195;50.868;4.382;2023-02-23T03:42:29;95.63;;;37.87;;
20069;SDS011;10195;50.868;4.382;2023-02-23T03:45:18;93.23;;;35.20;;
20069;SDS011;10195;50.868;4.382;2023-02-23T03:48:05;92.67;;;34.40;;
20069;SDS011;10195;50.868;4.382;2023-02-23T03:50:53;89.80;;;34.40;;
20069;SDS011;10195;50.868;4.382;2023-02-23T03:53:55;86.27;;;34.13;;
20069;SDS011;10195;50.868;4.382;2023-02-23T03:56:51;84.77;;;35.43;;
20069;SDS011;10195;50.868;4.382;2023-02-23T03:59:39;85.07;;;36.77;;
20069;SDS011;10195;50.868;4.382;2023-02-23T04:02:29;86.53;;;34.40;;
20069;SDS011;10195;50.868;4.382;2023-02-23T04:05:17;87.07;;;36.23;;
20069;SDS011;10195;50.868;4.382;2023-02-23T04:08:04;107.30;;;43.47;;
20069;SDS011;10195;50.868;4.382;2023-02-23T04:11:39;103.63;;;40.37;;
20069;SDS011;10195;50.868;4.382;2023-02-23T04:14:18;81.27;;;35.43;;
20069;SDS011;10195;50.868;4.382;2023-02-23T04:16:55;92.17;;;37.27;;
20069;SDS011;10195;50.868;4.382;2023-02-23T04:19:24;98.03;;;40.20;;
20069;SDS011;10195;50.868;4.382;2023-02-23T04:21:52;96.97;;;39.63;;
20069;SDS011;10195;50.868;4.382;2023-02-23T04:24:17;103.77;;;42.13;;
20069;SDS011;10195;50.868;4.382;2023-02-23T04:26:43;100.17;;;40.27;;
20069;SDS011;10195;50.868;4.382;2023-02-23T04:29:10;91.83;;;40.20;;
20069;SDS011;10195;50.868;4.382;2023-02-23T04:31:36;103.77;;;39.93;;
20069;SDS011;10195;50.868;4.382;2023-02-23T04:34:02;107.57;;;43.13;;
20069;SDS011;10195;50.868;4.382;2023-02-23T04:36:28;91.97;;;37.87;;
20069;SDS011;10195;50.868;4.382;2023-02-23T04:38:54;89.63;;;40.73;;
20069;SDS011;10195;50.868;4.382;2023-02-23T04:41:20;94.07;;;40.97;;
20069;SDS011;10195;50.868;4.382;2023-02-23T04:43:46;98.17;;;42.90;;
20069;SDS011;10195;50.868;4.382;2023-02-23T04:46:11;99.73;;;42.30;;
20069;SDS011;10195;50.868;4.382;2023-02-23T04:48:37;88.03;;;40.27;;
20069;SDS011;10195;50.868;4.382;2023-02-23T04:51:03;94.90;;;40.77;;
20069;SDS011;10195;50.868;4.382;2023-02-23T04:53:29;98.53;;;39.87;;
20069;SDS011;10195;50.868;4.382;2023-02-23T04:55:55;94.10;;;40.70;;
20069;SDS011;10195;50.868;4.382;2023-02-23T04:58:20;77.57;;;37.77;;
20069;SDS011;10195;50.868;4.382;2023-02-23T05:00:46;84.67;;;38.23;;
20069;SDS011;10195;50.868;4.382;2023-02-23T05:03:12;80.27;;;37.73;;
20069;SDS011;10195;50.868;4.382;2023-02-23T05:05:38;85.87;;;38.50;;
20069;SDS011;10195;50.868;4.382;2023-02-23T05:08:07;86.43;;;39.53;;
20069;SDS011;10195;50.868;4.382;2023-02-23T05:10:33;84.87;;;38.60;;
20069;SDS011;10195;50.868;4.382;2023-02-23T05:12:58;94.77;;;41.73;;
20069;SDS011;10195;50.868;4.382;2023-02-23T05:15:25;94.03;;;40.27;;
20069;SDS011;10195;50.868;4.382;2023-02-23T05:17:51;91.67;;;41.00;;
20069;SDS011;10195;50.868;4.382;2023-02-23T05:20:19;95.77;;;42.37;;
20069;SDS011;10195;50.868;4.382;2023-02-23T05:22:44;94.43;;;41.87;;
20069;SDS011;10195;50.868;4.382;2023-02-23T05:25:10;95.23;;;41.83;;
20069;SDS011;10195;50.868;4.382;2023-02-23T05:27:36;91.67;;;40.13;;
20069;SDS011;10195;50.868;4.382;2023-02-23T05:30:03;95.10;;;42.33;;
20069;SDS011;10195;50.868;4.382;2023-02-23T05:32:31;97.83;;;41.67;;
20069;SDS011;10195;50.868;4.382;2023-02-23T05:34:57;92.47;;;41.80;;
20069;SDS011;10195;50.868;4.382;2023-02-23T05:37:22;88.27;;;40.27;;
20069;SDS011;10195;50.868;4.382;2023-02-23T05:39:48;93.70;;;40.73;;
20069;SDS011;10195;50.868;4.382;2023-02-23T05:42:14;89.40;;;40.50;;
20069;SDS011;10195;50.868;4.382;2023-02-23T05:44:39;93.50;;;41.33;;
20069;SDS011;10195;50.868;4.382;2023-02-23T05:47:05;98.70;;;41.67;;
20069;SDS011;10195;50.868;4.382;2023-02-23T05:49:31;101.80;;;43.43;;
20069;SDS011;10195;50.868;4.382;2023-02-23T05:51:56;100.13;;;41.73;;
20069;SDS011;10195;50.868;4.382;2023-02-23T05:54:22;96.63;;;42.20;;
20069;SDS011;10195;50.868;4.382;2023-02-23T05:56:47;93.73;;;42.53;;
20069;SDS011;10195;50.868;4.382;2023-02-23T05:59:14;99.50;;;42.53;;
20069;SDS011;10195;50.868;4.382;2023-02-23T06:01:41;100.80;;;43.17;;
20069;SDS011;10195;50.868;4.382;2023-02-23T06:04:07;98.43;;;43.07;;
20069;SDS011;10195;50.868;4.382;2023-02-23T06:06:32;99.63;;;44.17;;
20069;SDS011;10195;50.868;4.382;2023-02-23T06:08:58;102.23;;;43.17;;
20069;SDS011;10195;50.868;4.382;2023-02-23T06:11:24;94.43;;;41.50;;
20069;SDS011;10195;50.868;4.382;2023-02-23T06:13:49;95.43;;;41.23;;
20069;SDS011;10195;50.868;4.382;2023-02-23T06:16:16;95.73;;;42.57;;
20069;SDS011;10195;50.868;4.382;2023-02-23T06:18:41;105.17;;;43.63;;
20069;SDS011;10195;50.868;4.382;2023-02-23T06:21:07;92.63;;;41.27;;
20069;SDS011;10195;50.868;4.382;2023-02-23T06:23:33;101.13;;;41.33;;
20069;SDS011;10195;50.868;4.382;2023-02-23T06:25:59;97.50;;;41.80;;
20069;SDS011;10195;50.868;4.382;2023-02-23T06:28:25;91.90;;;41.30;;
20069;SDS011;10195;50.868;4.382;2023-02-23T06:30:51;103.10;;;41.03;;
20069;SDS011;10195;50.868;4.382;2023-02-23T06:33:18;105.53;;;42.03;;
20069;SDS011;10195;50.868;4.382;2023-02-23T06:35:46;99.63;;;41.80;;
20069;SDS011;10195;50.868;4.382;2023-02-23T06:38:12;101.43;;;42.80;;
20069;SDS011;10195;50.868;4.382;2023-02-23T06:40:38;98.63;;;43.07;;
20069;SDS011;10195;50.868;4.382;2023-02-23T06:43:04;101.70;;;43.33;;
20069;SDS011;10195;50.868;4.382;2023-02-23T06:45:30;92.33;;;41.50;;
20069;SDS011;10195;50.868;4.382;2023-02-23T06:47:57;101.43;;;41.60;;
20069;SDS011;10195;50.868;4.382;2023-02-23T06:50:23;105.47;;;43.10;;
20069;SDS011;10195;50.868;4.382;2023-02-23T06:52:49;106.83;;;43.63;;
20069;SDS011;10195;50.868;4.382;2023-02-23T06:55:15;105.37;;;43.50;;
20069;SDS011;10195;50.868;4.382;2023-02-23T06:57:41;99.73;;;43.63;;
20069;SDS011;10195;50.868;4.382;2023-02-23T07:00:08;98.90;;;42.03;;
20069;SDS011;10195;50.868;4.382;2023-02-23T07:02:41;107.43;;;45.17;;
20069;SDS011;10195;50.868;4.382;2023-02-23T07:05:08;95.50;;;44.50;;
20069;SDS011;10195;50.868;4.382;2023-02-23T07:07:35;114.43;;;46.43;;
20069;SDS011;10195;50.868;4.382;2023-02-23T07:10:00;107.73;;;45.10;;
20069;SDS011;10195;50.868;4.382;2023-02-23T07:12:26;111.90;;;45.73;;
20069;SDS011;10195;50.868;4.382;2023-02-23T07:14:52;113.93;;;46.60;;
20069;SDS011;10195;50.868;4.382;2023-02-23T07:17:17;110.73;;;46.23;;
20069;SDS011;10195;50.868;4.382;2023-02-23T07:19:43;103.83;;;45.10;;
20069;SDS011;10195;50.868;4.382;2023-02-23T07:22:09;110.33;;;45.50;;
20069;SDS011;10195;50.868;4.382;2023-02-23T07:24:34;108.87;;;45.50;;
20069;SDS011;10195;50.868;4.382;2023-02-23T07:27:00;109.70;;;44.97;;
20069;SDS011;10195;50.868;4.382;2023-02-23T07:29:26;102.07;;;45.63;;
20069;SDS011;10195;50.868;4.382;2023-02-23T07:31:52;102.07;;;43.43;;
20069;SDS011;10195;50.868;4.382;2023-02-23T07:34:18;98.67;;;43.37;;
20069;SDS011;10195;50.868;4.382;2023-02-23T07:36:44;99.33;;;43.40;;
20069;SDS011;10195;50.868;4.382;2023-02-23T07:39:09;97.07;;;41.50;;
20069;SDS011;10195;50.868;4.382;2023-02-23T07:41:35;94.20;;;42.77;;
20069;SDS011;10195;50.868;4.382;2023-02-23T07:44:01;100.73;;;44.10;;
20069;SDS011;10195;50.868;4.382;2023-02-23T07:46:26;94.73;;;42.03;;
20069;SDS011;10195;50.868;4.382;2023-02-23T07:48:52;106.33;;;45.63;;
20069;SDS011;10195;50.868;4.382;2023-02-23T07:51:18;96.03;;;45.00;;
20069;SDS011;10195;50.868;4.382;2023-02-23T07:53:44;96.73;;;44.80;;
20069;SDS011;10195;50.868;4.382;2023-02-23T07:56:10;101.90;;;43.57;;
20069;SDS011;10195;50.868;4.382;2023-02-23T07:58:37;94.00;;;43.20;;
20069;SDS011;10195;50.868;4.382;2023-02-23T08:01:04;94.00;;;41.90;;
20069;SDS011;10195;50.868;4.382;2023-02-23T08:03:29;102.77;;;43.43;;
20069;SDS011;10195;50.868;4.382;2023-02-23T08:05:55;99.33;;;42.90;;
20069;SDS011;10195;50.868;4.382;2023-02-23T08:08:22;95.87;;;43.20;;
20069;SDS011;10195;50.868;4.382;2023-02-23T08:10:47;91.73;;;40.43;;
20069;SDS011;10195;50.868;4.382;2023-02-23T08:13:14;93.80;;;43.50;;
20069;SDS011;10195;50.868;4.382;2023-02-23T08:15:40;110.30;;;45.77;;
20069;SDS011;10195;50.868;4.382;2023-02-23T08:18:06;104.70;;;44.73;;
20069;SDS011;10195;50.868;4.382;2023-02-23T08:20:32;101.63;;;43.80;;
20069;SDS011;10195;50.868;4.382;2023-02-23T08:22:57;104.07;;;46.63;;
20069;SDS011;10195;50.868;4.382;2023-02-23T08:25:23;98.47;;;43.43;;
20069;SDS011;10195;50.868;4.382;2023-02-23T08:27:52;86.57;;;40.30;;
20069;SDS011;10195;50.868;4.382;2023-02-23T08:30:18;94.53;;;42.60;;
20069;SDS011;10195;50.868;4.382;2023-02-23T08:32:47;94.43;;;42.70;;
20069;SDS011;10195;50.868;4.382;2023-02-23T08:35:14;97.23;;;44.17;;
20069;SDS011;10195;50.868;4.382;2023-02-23T08:37:42;99.87;;;44.37;;
20069;SDS011;10195;50.868;4.382;2023-02-23T08:40:09;97.37;;;44.27;;
20069;SDS011;10195;50.868;4.382;2023-02-23T08:42:39;97.77;;;44.17;;
20069;SDS011;10195;50.868;4.382;2023-02-23T08:45:05;98.97;;;46.07;;
20069;SDS011;10195;50.868;4.382;2023-02-23T08:47:32;100.83;;;46.53;;
20069;SDS011;10195;50.868;4.382;2023-02-23T08:49:58;107.47;;;49.10;;
20069;SDS011;10195;50.868;4.382;2023-02-23T08:52:24;114.10;;;51.70;;
20069;SDS011;10195;50.868;4.382;2023-02-23T08:54:50;101.63;;;45.73;;
20069;SDS011;10195;50.868;4.382;2023-02-23T08:57:15;103.30;;;45.03;;
20069;SDS011;10195;50.868;4.382;2023-02-23T08:59:41;94.47;;;42.33;;
20069;SDS011;10195;50.868;4.382;2023-02-23T09:02:11;100.37;;;46.00;;
20069;SDS011;10195;50.868;4.382;2023-02-23T09:04:37;94.20;;;44.20;;
20069;SDS011;10195;50.868;4.382;2023-02-23T09:07:05;99.13;;;45.80;;
20069;SDS011;10195;50.868;4.382;2023-02-23T09:09:32;106.37;;;45.30;;
20069;SDS011;10195;50.868;4.382;2023-02-23T09:11:58;93.40;;;44.83;;
20069;SDS011;10195;50.868;4.382;2023-02-23T09:14:24;92.30;;;43.17;;
20069;SDS011;10195;50.868;4.382;2023-02-23T09:16:50;94.10;;;42.40;;
20069;SDS011;10195;50.868;4.382;2023-02-23T09:19:16;94.10;;;43.83;;
20069;SDS011;10195;50.868;4.382;2023-02-23T09:21:42;93.13;;;43.93;;
20069;SDS011;10195;50.868;4.382;2023-02-23T09:24:08;88.87;;;44.30;;
20069;SDS011;10195;50.868;4.382;2023-02-23T09:26:34;90.07;;;43.07;;
20069;SDS011;10195;50.868;4.382;2023-02-23T09:29:04;96.20;;;43.53;;
20069;SDS011;10195;50.868;4.382;2023-02-23T09:31:31;93.37;;;45.27;;
20069;SDS011;10195;50.868;4.382;2023-02-23T09:33:57;95.70;;;45.13;;
20069;SDS011;10195;50.868;4.382;2023-02-23T09:36:26;86.57;;;43.47;;
20069;SDS011;10195;50.868;4.382;2023-02-23T09:38:53;92.97;;;41.90;;
20069;SDS011;10195;50.868;4.382;2023-02-23T09:43:52;83.90;;;42.00;;
20069;SDS011;10195;50.868;4.382;2023-02-23T09:46:32;80.03;;;38.10;;
20069;SDS011;10195;50.868;4.382;2023-02-23T09:49:22;86.87;;;41.33;;
20069;SDS011;10195;50.868;4.382;2023-02-23T09:51:53;88.07;;;43.17;;
20069;SDS011;10195;50.868;4.382;2023-02-23T09:54:23;95.67;;;43.23;;
20069;SDS011;10195;50.868;4.382;2023-02-23T09:56:53;94.00;;;45.57;;
20069;SDS011;10195;50.868;4.382;2023-02-23T09:59:22;86.30;;;41.77;;
20069;SDS011;10195;50.868;4.382;2023-02-23T10:07:16;97.73;;;47.27;;
20069;SDS011;10195;50.868;4.382;2023-02-23T10:10:04;95.80;;;46.93;;
20069;SDS011;10195;50.868;4.382;2023-02-23T10:23:10;88.47;;;43.00;;
20069;SDS011;10195;50.868;4.382;2023-02-23T10:25:43;85.07;;;43.60;;
20069;SDS011;10195;50.868;4.382;2023-02-23T10:28:18;91.07;;;44.43;;
20069;SDS011;10195;50.868;4.382;2023-02-23T10:30:45;79.13;;;42.00;;
20069;SDS011;10195;50.868;4.382;2023-02-23T10:35:57;78.17;;;40.60;;
20069;SDS011;10195;50.868;4.382;2023-02-23T10:38:35;69.43;;;39.00;;
20069;SDS011;10195;50.868;4.382;2023-02-23T10:41:01;72.37;;;39.90;;
20069;SDS011;10195;50.868;4.382;2023-02-23T10:43:28;68.83;;;38.37;;
20069;SDS011;10195;50.868;4.382;2023-02-23T10:45:55;70.67;;;36.67;;
20069;SDS011;10195;50.868;4.382;2023-02-23T10:48:21;61.77;;;34.90;;
20069;SDS011;10195;50.868;4.382;2023-02-23T10:50:51;63.43;;;32.80;;
20069;SDS011;10195;50.868;4.382;2023-02-23T10:53:26;63.37;;;36.07;;
20069;SDS011;10195;50.868;4.382;2023-02-23T10:56:04;64.27;;;33.67;;
20069;SDS011;10195;50.868;4.382;2023-02-23T11:01:41;62.97;;;33.40;;
20069;SDS011;10195;50.868;4.382;2023-02-23T11:04:26;65.10;;;36.27;;
20069;SDS011;10195;50.868;4.382;2023-02-23T11:09:58;61.37;;;31.53;;
20069;SDS011;10195;50.868;4.382;2023-02-23T11:12:44;65.23;;;33.70;;
20069;SDS011;10195;50.868;4.382;2023-02-23T11:15:24;65.40;;;30.60;;
20069;SDS011;10195;50.868;4.382;2023-02-23T11:17:56;59.30;;;31.77;;
20069;SDS011;10195;50.868;4.382;2023-02-23T11:23:00;58.53;;;31.23;;
20069;SDS011;10195;50.868;4.382;2023-02-23T11:25:34;58.57;;;31.27;;
20069;SDS011;10195;50.868;4.382;2023-02-23T11:28:01;57.13;;;31.23;;
20069;SDS011;10195;50.868;4.382;2023-02-23T11:30:30;54.53;;;30.27;;
20069;SDS011;10195;50.868;4.382;2023-02-23T11:33:06;48.63;;;28.10;;
20069;SDS011;10195;50.868;4.382;2023-02-23T11:35:38;54.67;;;27.37;;
20069;SDS011;10195;50.868;4.382;2023-02-23T11:41:00;49.40;;;25.77;;
20069;SDS011;10195;50.868;4.382;2023-02-23T11:43:28;56.33;;;30.33;;
20069;SDS011;10195;50.868;4.382;2023-02-23T11:45:57;57.00;;;30.07;;
20069;SDS011;10195;50.868;4.382;2023-02-23T11:48:32;61.87;;;33.60;;
20069;SDS011;10195;50.868;4.382;2023-02-23T11:51:00;66.53;;;36.40;;
20069;SDS011;10195;50.868;4.382;2023-02-23T11:53:31;62.30;;;35.40;;
20069;SDS011;10195;50.868;4.382;2023-02-23T11:56:10;65.17;;;37.43;;
20069;SDS011;10195;50.868;4.382;2023-02-23T11:58:43;77.13;;;39.67;;
20069;SDS011;10195;50.868;4.382;2023-02-23T12:01:14;80.27;;;41.97;;
20069;SDS011;10195;50.868;4.382;2023-02-23T12:03:46;79.40;;;40.27;;
20069;SDS011;10195;50.868;4.382;2023-02-23T12:06:28;81.80;;;44.03;;
20069;SDS011;10195;50.868;4.382;2023-02-23T12:09:03;88.93;;;45.37;;
20069;SDS011;10195;50.868;4.382;2023-02-23T12:11:32;89.43;;;46.60;;
20069;SDS011;10195;50.868;4.382;2023-02-23T12:16:52;89.63;;;46.33;;
20069;SDS011;10195;50.868;4.382;2023-02-23T12:25:15;79.70;;;43.17;;
20069;SDS011;10195;50.868;4.382;2023-02-23T12:27:20;77.67;;;39.20;;
20069;SDS011;10195;50.868;4.382;2023-02-23T12:32:52;80.00;;;40.47;;
20069;SDS011;10195;50.868;4.382;2023-02-23T12:38:02;68.00;;;34.90;;
20069;SDS011;10195;50.868;4.382;2023-02-23T12:40:39;70.40;;;37.10;;
20069;SDS011;10195;50.868;4.382;2023-02-23T12:43:24;75.57;;;39.57;;
20069;SDS011;10195;50.868;4.382;2023-02-23T12:46:08;76.30;;;37.37;;
20069;SDS011;10195;50.868;4.382;2023-02-23T12:51:30;72.47;;;38.87;;
20069;SDS011;10195;50.868;4.382;2023-02-23T12:54:00;74.93;;;40.60;;
20069;SDS011;10195;50.868;4.382;2023-02-23T12:56:31;70.23;;;38.23;;
20069;SDS011;10195;50.868;4.382;2023-02-23T13:02:00;68.50;;;40.70;;
20069;SDS011;10195;50.868;4.382;2023-02-23T13:04:43;71.03;;;42.10;;
20069;SDS011;10195;50.868;4.382;2023-02-23T13:18:24;69.73;;;37.23;;
20069;SDS011;10195;50.868;4.382;2023-02-23T13:20:57;69.97;;;36.90;;
20069;SDS011;10195;50.868;4.382;2023-02-23T13:26:10;83.40;;;44.60;;
20069;SDS011;10195;50.868;4.382;2023-02-23T13:31:34;78.27;;;41.20;;
20069;SDS011;10195;50.868;4.382;2023-02-23T13:34:02;83.67;;;42.03;;
20069;SDS011;10195;50.868;4.382;2023-02-23T13:36:31;81.10;;;43.13;;
20069;SDS011;10195;50.868;4.382;2023-02-23T13:41:49;61.27;;;30.23;;
20069;SDS011;10195;50.868;4.382;2023-02-23T13:44:26;55.83;;;27.20;;
20069;SDS011;10195;50.868;4.382;2023-02-23T13:49:50;64.53;;;33.33;;
20069;SDS011;10195;50.868;4.382;2023-02-23T13:52:35;61.07;;;31.87;;
20069;SDS011;10195;50.868;4.382;2023-02-23T13:58:10;60.63;;;28.93;;
20069;SDS011;10195;50.868;4.382;2023-02-23T14:00:39;59.63;;;28.67;;
20069;SDS011;10195;50.868;4.382;2023-02-23T14:03:06;62.23;;;29.83;;
20069;SDS011;10195;50.868;4.382;2023-02-23T14:05:44;55.57;;;29.30;;
20069;SDS011;10195;50.868;4.382;2023-02-23T14:08:21;51.63;;;27.40;;
20069;SDS011;10195;50.868;4.382;2023-02-23T14:10:52;56.97;;;27.30;;
20069;SDS011;10195;50.868;4.382;2023-02-23T14:18:55;48.13;;;25.00;;
20069;SDS011;10195;50.868;4.382;2023-02-23T14:21:41;46.37;;;24.00;;
20069;SDS011;10195;50.868;4.382;2023-02-23T14:30:11;42.97;;;23.87;;
20069;SDS011;10195;50.868;4.382;2023-02-23T14:32:38;54.17;;;24.63;;
20069;SDS011;10195;50.868;4.382;2023-02-23T14:35:33;44.37;;;23.23;;
20069;SDS011;10195;50.868;4.382;2023-02-23T14:38:13;36.13;;;20.47;;
20069;SDS011;10195;50.868;4.382;2023-02-23T14:40:47;40.57;;;20.27;;
20069;SDS011;10195;50.868;4.382;2023-02-23T14:43:30;39.87;;;21.70;;
20069;SDS011;10195;50.868;4.382;2023-02-23T14:45:56;42.93;;;21.57;;
20069;SDS011;10195;50.868;4.382;2023-02-23T14:48:22;40.40;;;20.73;;
20069;SDS011;10195;50.868;4.382;2023-02-23T14:50:49;38.17;;;21.00;;
20069;SDS011;10195;50.868;4.382;2023-02-23T14:53:19;38.53;;;21.07;;
20069;SDS011;10195;50.868;4.382;2023-02-23T14:55:48;36.73;;;20.23;;
20069;SDS011;10195;50.868;4.382;2023-02-23T14:58:32;40.33;;;21.40;;
20069;SDS011;10195;50.868;4.382;2023-02-23T15:00:58;37.27;;;18.37;;
20069;SDS011;10195;50.868;4.382;2023-02-23T15:03:25;38.70;;;20.57;;
20069;SDS011;10195;50.868;4.382;2023-02-23T15:06:09;40.90;;;20.67;;
20069;SDS011;10195;50.868;4.382;2023-02-23T15:08:36;36.10;;;19.10;;
20069;SDS011;10195;50.868;4.382;2023-02-23T15:11:09;42.03;;;20.33;;
20069;SDS011;10195;50.868;4.382;2023-02-23T15:13:39;36.47;;;18.63;;
20069;SDS011;10195;50.868;4.382;2023-02-23T15:18:40;29.87;;;15.47;;
20069;SDS011;10195;50.868;4.382;2023-02-23T15:21:08;30.27;;;15.87;;
20069;SDS011;10195;50.868;4.382;2023-02-23T15:23:42;33.97;;;15.20;;
20069;SDS011;10195;50.868;4.382;2023-02-23T15:29:18;27.93;;;15.97;;
20069;SDS011;10195;50.868;4.382;2023-02-23T15:31:48;27.50;;;16.10;;
20069;SDS011;10195;50.868;4.382;2023-02-23T15:34:25;26.67;;;14.07;;
20069;SDS011;10195;50.868;4.382;2023-02-23T15:36:57;26.63;;;15.13;;
20069;SDS011;10195;50.868;4.382;2023-02-23T15:39:37;29.70;;;15.77;;
20069;SDS011;10195;50.868;4.382;2023-02-23T15:42:10;26.73;;;14.47;;
20069;SDS011;10195;50.868;4.382;2023-02-23T15:44:39;25.93;;;13.27;;
20069;SDS011;10195;50.868;4.382;2023-02-23T15:47:05;26.20;;;14.23;;
20069;SDS011;10195;50.868;4.382;2023-02-23T15:49:40;18.13;;;10.50;;
20069;SDS011;10195;50.868;4.382;2023-02-23T15:52:07;23.30;;;12.83;;
20069;SDS011;10195;50.868;4.382;2023-02-23T15:57:20;24.20;;;12.57;;
20069;SDS011;10195;50.868;4.382;2023-02-23T15:59:55;19.57;;;11.43;;
20069;SDS011;10195;50.868;4.382;2023-02-23T16:02:23;20.63;;;12.83;;
20069;SDS011;10195;50.868;4.382;2023-02-23T16:04:49;24.63;;;13.10;;
20069;SDS011;10195;50.868;4.382;2023-02-23T16:07:19;24.97;;;14.60;;
20069;SDS011;10195;50.868;4.382;2023-02-23T16:12:20;29.17;;;15.93;;
20069;SDS011;10195;50.868;4.382;2023-02-23T16:14:58;27.33;;;15.60;;
20069;SDS011;10195;50.868;4.382;2023-02-23T16:17:47;23.37;;;13.60;;
20069;SDS011;10195;50.868;4.382;2023-02-23T16:22:51;29.10;;;15.10;;
20069;SDS011;10195;50.868;4.382;2023-02-23T16:25:18;28.73;;;16.57;;
20069;SDS011;10195;50.868;4.382;2023-02-23T16:27:50;29.07;;;16.07;;
20069;SDS011;10195;50.868;4.382;2023-02-23T16:33:20;33.90;;;19.47;;
20069;SDS011;10195;50.868;4.382;2023-02-23T16:35:49;31.87;;;17.80;;
20069;SDS011;10195;50.868;4.382;2023-02-23T16:38:24;30.67;;;18.20;;
20069;SDS011;10195;50.868;4.382;2023-02-23T16:40:50;27.20;;;16.47;;
20069;SDS011;10195;50.868;4.382;2023-02-23T16:43:16;25.47;;;15.20;;
20069;SDS011;10195;50.868;4.382;2023-02-23T16:45:41;20.87;;;14.73;;
20069;SDS011;10195;50.868;4.382;2023-02-23T16:48:11;26.27;;;16.07;;
20069;SDS011;10195;50.868;4.382;2023-02-23T16:50:39;30.13;;;17.47;;
20069;SDS011;10195;50.868;4.382;2023-02-23T16:53:05;26.60;;;16.43;;
20069;SDS011;10195;50.868;4.382;2023-02-23T16:55:55;26.67;;;17.73;;
20069;SDS011;10195;50.868;4.382;2023-02-23T16:58:25;24.97;;;16.77;;
20069;SDS011;10195;50.868;4.382;2023-02-23T17:00:54;32.10;;;18.07;;
20069;SDS011;10195;50.868;4.382;2023-02-23T17:03:24;31.93;;;18.20;;
20069;SDS011;10195;50.868;4.382;2023-02-23T17:05:52;25.83;;;17.07;;